Time;durP1;ratioP1;P1;durP2;ratioP2;P2;SDS_P1;SDS_P2;PMS_P1;PMS_P2;Temp;Humidity;BMP_temperature;BMP_pressure;BME280_temperature;BME280_humidity;BME280_pressure;Samples;Min_cycle;Max_cycle;Signal;HPM_P1;HPM_P2
2022/04/29 00:00:45;;;;;;;;;18.00;14.75;;;;;17.39;34.41;102147.22;4979906;28;45247;-57
2022/04/29 00:03:13;;;;;;;;;14.50;14.50;;;;;17.35;34.61;102146.41;4980048;28;45247;-57
2022/04/29 00:05:40;;;;;;;;;17.25;16.00;;;;;17.32;34.72;102142.94;4980309;28;45223;-57
2022/04/29 00:08:07;;;;;;;;;15.75;15.00;;;;;17.32;34.77;102153.56;4966067;28;45603;-57
2022/04/29 00:10:34;;;;;;;;;15.75;13.75;;;;;17.29;34.50;102153.66;4979703;28;45350;-57
2022/04/29 00:13:00;;;;;;;;;17.75;17.25;;;;;17.29;34.60;102153.66;4979557;28;45424;-57
2022/04/29 00:15:26;;;;;;;;;18.50;17.50;;;;;17.26;34.65;102156.34;4980032;28;45231;-57
2022/04/29 00:17:52;;;;;;;;;16.75;15.00;;;;;17.22;34.66;102152.91;4979914;28;45267;-57
2022/04/29 00:20:17;;;;;;;;;15.00;13.00;;;;;17.20;34.86;102147.59;4979863;28;45180;-57
2022/04/29 00:22:44;;;;;;;;;15.25;13.75;;;;;17.16;34.94;102137.94;4979634;28;45383;-57
2022/04/29 00:25:10;;;;;;;;;16.25;16.00;;;;;17.15;34.73;102148.59;4980010;28;45236;-57
2022/04/29 00:27:36;;;;;;;;;15.50;14.50;;;;;17.12;34.70;102143.34;4979555;28;45326;-57
2022/04/29 00:30:04;;;;;;;;;22.00;18.75;;;;;17.08;34.85;102131.94;4979704;28;46041;-57
2022/04/29 00:32:30;;;;;;;;;14.25;13.75;;;;;17.06;35.01;102133.72;4979231;28;45600;-57
2022/04/29 00:34:55;;;;;;;;;17.50;17.00;;;;;17.03;34.75;102125.81;4979776;28;45163;-57
2022/04/29 00:37:20;;;;;;;;;14.00;14.00;;;;;17.00;35.04;102123.22;4979809;28;45221;-57
2022/04/29 00:39:46;;;;;;;;;18.25;17.00;;;;;16.97;34.92;102123.28;4979225;28;46202;-57
2022/04/29 00:42:13;;;;;;;;;16.75;16.00;;;;;16.94;35.11;102123.34;4979187;28;45337;-57
2022/04/29 00:44:40;;;;;;;;;13.50;12.00;;;;;16.89;34.86;102115.41;4980210;28;45233;-57
2022/04/29 00:47:08;;;;;;;;;16.25;16.00;;;;;16.88;35.08;102117.19;4982752;28;46012;-59
2022/04/29 00:49:33;;;;;;;;;15.00;15.00;;;;;16.85;35.16;102117.25;4981423;28;47033;-58
2022/04/29 00:51:59;;;;;;;;;15.75;14.75;;;;;16.83;35.22;102107.56;4982620;28;45436;-57
2022/04/29 00:54:28;;;;;;;;;17.50;15.75;;;;;16.79;35.24;102106.78;4982828;28;45155;-57
2022/04/29 00:56:55;;;;;;;;;15.25;13.00;;;;;16.79;35.44;102109.41;4982441;28;45442;-57
2022/04/29 00:59:45;;;;;;;;;17.25;15.75;;;;;16.77;35.25;102100.59;4982469;28;45976;-57
2022/04/29 01:02:11;;;;;;;;;16.25;15.75;;;;;16.74;35.29;102101.53;4982418;28;45240;-60
2022/04/29 01:04:52;;;;;;;;;17.50;16.00;;;;;16.73;35.57;102096.25;4981210;28;45413;-58
2022/04/29 01:07:17;;;;;;;;;18.25;15.00;;;;;16.69;35.49;102098.09;4974944;28;45389;-61
2022/04/29 01:09:42;;;;;;;;;13.50;13.50;;;;;16.67;35.25;102099.88;4975794;28;45305;-57
2022/04/29 01:12:08;;;;;;;;;18.50;15.00;;;;;16.66;35.65;102102.56;4982336;28;45278;-57
2022/04/29 01:14:34;;;;;;;;;14.75;13.50;;;;;16.63;35.53;102099.97;4982623;28;45462;-57
2022/04/29 01:17:00;;;;;;;;;16.25;13.75;;;;;16.58;35.47;102106.22;4981278;28;45366;-58
2022/04/29 01:19:25;;;;;;;;;18.25;16.50;;;;;16.57;35.64;102095.66;4980922;28;45457;-57
2022/04/29 01:21:52;;;;;;;;;18.75;15.25;;;;;16.55;35.50;102089.50;4982274;28;45282;-57
2022/04/29 01:24:17;;;;;;;;;18.75;16.50;;;;;16.55;35.62;102095.69;4982169;28;45403;-56
2022/04/29 01:26:42;;;;;;;;;19.25;16.00;;;;;16.51;35.39;102095.75;4980714;28;45287;-56
2022/04/29 01:29:08;;;;;;;;;17.25;14.00;;;;;16.49;35.67;102093.16;4982102;28;45186;-56
2022/04/29 01:31:35;;;;;;;;;16.50;15.25;;;;;16.48;35.99;102095.81;4981829;28;45196;-57
2022/04/29 01:34:01;;;;;;;;;17.00;15.50;;;;;16.45;35.89;102095.88;4982416;28;45334;-57
2022/04/29 01:36:27;;;;;;;;;19.00;16.50;;;;;16.40;35.47;102091.53;4982147;28;45374;-56
2022/04/29 01:38:52;;;;;;;;;18.00;15.00;;;;;16.39;35.70;102089.75;4982060;28;45456;-58
2022/04/29 01:41:17;;;;;;;;;22.00;18.25;;;;;16.37;35.73;102090.69;4981570;28;45541;-57
2022/04/29 01:43:43;;;;;;;;;16.00;14.00;;;;;16.35;35.70;102096.03;4980791;28;45339;-57
2022/04/29 01:46:08;;;;;;;;;17.50;16.25;;;;;16.32;35.55;102081.94;4981824;28;45342;-57
2022/04/29 01:48:33;;;;;;;;;17.75;15.75;;;;;16.29;35.85;102081.97;4981913;28;45305;-57
2022/04/29 01:50:59;;;;;;;;;18.00;15.50;;;;;16.27;35.80;102091.75;4981754;28;45341;-57
2022/04/29 01:53:24;;;;;;;;;14.75;14.00;;;;;16.21;35.81;102083.00;4982154;28;46000;-57
2022/04/29 01:55:49;;;;;;;;;22.25;18.50;;;;;16.19;36.00;102086.59;4981293;28;45540;-57
2022/04/29 01:58:15;;;;;;;;;14.75;14.75;;;;;16.17;35.89;102094.53;4980947;28;46111;-57
2022/04/29 02:00:40;;;;;;;;;16.25;15.75;;;;;16.14;36.03;102088.41;4981545;28;45155;-57
2022/04/29 02:03:06;;;;;;;;;22.00;17.75;;;;;16.12;36.17;102093.75;4980527;28;45224;-57
2022/04/29 02:05:32;;;;;;;;;13.25;13.25;;;;;16.08;36.32;102084.09;4981461;28;45322;-57
2022/04/29 02:08:00;;;;;;;;;19.25;17.75;;;;;15.99;36.23;102074.50;4968570;28;47784;-57
2022/04/29 02:10:25;;;;;;;;;22.25;20.00;;;;;16.02;36.28;102084.19;4980939;28;45350;-57
2022/04/29 02:12:51;;;;;;;;;15.75;15.75;;;;;16.01;36.07;102082.44;4979987;28;45287;-58
2022/04/29 02:15:17;;;;;;;;;14.75;13.25;;;;;15.98;36.03;102078.06;4981541;28;45245;-57
2022/04/29 02:17:43;;;;;;;;;18.75;17.00;;;;;15.98;36.39;102082.50;4981329;28;45350;-57
2022/04/29 02:20:09;;;;;;;;;22.00;20.75;;;;;15.96;36.37;102087.81;4981349;28;45367;-57
2022/04/29 02:22:34;;;;;;;;;16.25;14.75;;;;;15.94;36.56;102094.91;4981475;28;45530;-57
2022/04/29 02:25:00;;;;;;;;;11.50;11.50;;;;;15.90;36.22;102096.72;4981166;28;45606;-57
2022/04/29 02:27:25;;;;;;;;;14.75;14.75;;;;;15.89;36.61;102102.94;4981125;28;45305;-57
2022/04/29 02:29:50;;;;;;;;;19.00;17.00;;;;;15.87;36.37;102107.41;4981307;28;45279;-57
2022/04/29 02:32:17;;;;;;;;;22.25;19.00;;;;;15.85;36.13;102114.47;4981314;28;45263;-57
2022/04/29 02:34:43;;;;;;;;;18.50;17.25;;;;;15.84;36.19;102106.56;4981187;28;45499;-57
2022/04/29 02:37:09;;;;;;;;;19.00;15.25;;;;;15.82;36.74;102113.66;4979745;28;46180;-57
2022/04/29 02:39:35;;;;;;;;;18.75;17.00;;;;;15.80;36.17;102096.84;4980968;28;45449;-57
2022/04/29 02:42:01;;;;;;;;;19.00;17.50;;;;;15.78;36.33;102099.53;4981029;28;45318;-57
2022/04/29 02:44:26;;;;;;;;;21.00;18.75;;;;;15.76;36.84;102099.56;4980922;28;45542;-57
2022/04/29 02:47:06;;;;;;;;;17.25;17.00;;;;;15.69;36.88;102086.41;4981052;28;46022;-57
2022/04/29 02:49:32;;;;;;;;;25.25;21.75;;;;;15.73;36.36;102102.22;4981080;28;45226;-57
2022/04/29 02:51:57;;;;;;;;;12.75;12.75;;;;;15.72;36.72;102105.81;4980925;28;45622;-57
2022/04/29 02:54:23;;;;;;;;;21.75;19.25;;;;;15.72;36.77;102110.22;4979780;28;45610;-57
2022/04/29 02:56:52;;;;;;;;;22.75;18.25;;;;;15.70;36.97;102106.72;4980451;28;45454;-57
2022/04/29 02:59:19;;;;;;;;;20.25;18.50;;;;;15.68;36.49;102108.50;4980745;28;45310;-57
2022/04/29 03:01:45;;;;;;;;;20.75;19.00;;;;;15.67;36.77;102107.66;4980543;28;45356;-57
2022/04/29 03:04:11;;;;;;;;;14.75;14.75;;;;;15.65;36.85;102101.47;4980697;28;45180;-57
2022/04/29 03:06:36;;;;;;;;;16.25;15.75;;;;;15.67;36.79;102109.41;4979699;28;45266;-56
2022/04/29 03:09:02;;;;;;;;;21.25;19.25;;;;;15.65;36.64;102111.22;4968684;28;45361;-56
2022/04/29 03:11:27;;;;;;;;;22.00;16.25;;;;;15.63;36.50;102107.69;4980387;28;45404;-56
2022/04/29 03:13:53;;;;;;;;;19.00;17.00;;;;;15.64;37.01;102109.47;4980752;28;45269;-57
2022/04/29 03:16:18;;;;;;;;;20.75;20.75;;;;;15.65;37.08;102111.22;4980398;28;45215;-57
2022/04/29 03:18:44;;;;;;;;;18.50;18.00;;;;;15.64;36.96;102106.81;4980845;28;45176;-57
2022/04/29 03:21:10;;;;;;;;;17.25;15.50;;;;;15.62;36.88;102109.44;4980464;28;45278;-57
2022/04/29 03:23:36;;;;;;;;;17.00;16.75;;;;;15.60;36.86;102098.88;4980450;28;45394;-56
2022/04/29 03:26:04;;;;;;;;;19.25;17.25;;;;;15.63;37.26;102095.31;4978504;28;47185;-57
2022/04/29 03:28:29;;;;;;;;;26.00;21.00;;;;;15.59;37.37;102086.53;4980643;28;45339;-57
2022/04/29 03:30:55;;;;;;;;;19.25;18.00;;;;;15.62;36.92;102090.03;4980309;28;45256;-57
2022/04/29 03:33:20;;;;;;;;;18.25;18.25;;;;;15.61;37.24;102083.88;4980306;28;45394;-56
2022/04/29 03:35:50;;;;;;;;;22.25;19.75;;;;;15.60;37.04;102087.41;4980205;28;46043;-57
2022/04/29 03:38:16;;;;;;;;;21.75;18.00;;;;;15.61;37.35;102089.19;4980295;28;45278;-56
2022/04/29 03:40:41;;;;;;;;;21.25;18.50;;;;;15.59;36.88;102086.53;4980155;28;45325;-57
2022/04/29 03:43:07;;;;;;;;;21.25;19.00;;;;;15.59;37.33;102090.97;4978727;28;45323;-57
2022/04/29 03:45:33;;;;;;;;;20.50;18.25;;;;;15.57;37.11;102076.84;4979964;28;46136;-57
2022/04/29 03:47:58;;;;;;;;;21.00;21.00;;;;;15.57;36.96;102080.41;4980560;28;45308;-56
2022/04/29 03:50:25;;;;;;;;;23.50;21.50;;;;;15.57;37.41;102077.75;4978810;28;45260;-57
2022/04/29 03:53:00;;;;;;;;;18.00;15.75;;;;;15.55;37.32;102074.22;4980234;28;45345;-57
2022/04/29 03:55:30;;;;;;;;;25.00;20.25;;;;;15.54;37.62;102063.66;4979761;28;46074;-57
2022/04/29 03:57:56;;;;;;;;;22.75;20.25;;;;;15.54;37.74;102067.16;4978730;28;45456;-57
2022/04/29 04:00:23;;;;;;;;;23.75;23.25;;;;;15.54;37.74;102067.16;4980007;28;45353;-57
2022/04/29 04:02:52;;;;;;;;;23.50;18.25;;;;;15.53;37.77;102068.06;4979958;28;45436;-57
2022/04/29 04:05:17;;;;;;;;;25.50;20.75;;;;;15.53;37.59;102062.75;4978364;28;47149;-57
2022/04/29 04:07:44;;;;;;;;;24.25;22.25;;;;;15.51;37.51;102061.94;4979629;28;45452;-58
2022/04/29 04:10:10;;;;;;;;;22.00;18.50;;;;;15.51;37.27;102064.59;4979869;28;45381;-57
2022/04/29 04:12:46;;;;;;;;;25.25;19.50;;;;;15.51;37.27;102063.69;4979577;28;45263;-57
2022/04/29 04:15:12;;;;;;;;;25.75;23.75;;;;;15.49;37.80;102063.72;4979623;28;47145;-56
2022/04/29 04:17:39;;;;;;;;;24.00;22.25;;;;;15.45;37.39;102056.72;4979894;28;45338;-57
2022/04/29 04:20:06;;;;;;;;;20.75;17.25;;;;;15.44;37.53;102054.97;4980770;28;46323;-56
2022/04/29 04:22:35;;;;;;;;;22.00;22.00;;;;;15.42;37.64;102054.09;4983025;28;45397;-57
2022/04/29 04:25:02;;;;;;;;;26.25;23.75;;;;;15.41;37.54;102061.19;4982655;28;46299;-57
2022/04/29 04:27:27;;;;;;;;;23.75;19.50;;;;;15.42;37.66;102056.75;4982853;28;45334;-57
2022/04/29 04:29:53;;;;;;;;;26.50;20.25;;;;;15.41;37.55;102055.00;4983039;28;45489;-57
2022/04/29 04:32:18;;;;;;;;;26.75;22.50;;;;;15.40;37.71;102048.81;4982643;28;45425;-57
2022/04/29 04:34:57;;;;;;;;;21.75;19.00;;;;;15.38;37.78;102055.94;4982735;28;45331;-57
2022/04/29 04:37:24;;;;;;;;;24.75;23.75;;;;;15.38;37.40;102055.03;4982911;28;45252;-57
2022/04/29 04:39:50;;;;;;;;;23.00;20.25;;;;;15.37;37.86;102047.97;4982975;28;45306;-57
2022/04/29 04:42:17;;;;;;;;;19.00;19.00;;;;;15.34;37.97;102053.34;4982413;28;45498;-57
2022/04/29 04:44:45;;;;;;;;;22.00;21.00;;;;;15.35;37.50;102055.09;4982657;28;46364;-57
2022/04/29 04:47:10;;;;;;;;;21.50;19.25;;;;;15.35;37.89;102065.69;4982642;28;45283;-57
2022/04/29 04:49:35;;;;;;;;;21.75;21.50;;;;;15.35;37.64;102065.69;4981577;28;45286;-57
2022/04/29 04:52:01;;;;;;;;;23.75;22.25;;;;;15.33;37.80;102073.63;4982671;28;45409;-57
2022/04/29 04:54:27;;;;;;;;;24.75;24.25;;;;;15.32;38.11;102074.56;4981166;28;47326;-57
2022/04/29 04:56:53;;;;;;;;;28.50;21.75;;;;;15.32;38.06;102076.31;4981040;28;45334;-58
2022/04/29 04:59:18;;;;;;;;;20.25;19.00;;;;;15.30;37.88;102068.38;4981547;28;45251;-57
2022/04/29 05:01:43;;;;;;;;;23.25;21.75;;;;;15.29;38.01;102074.56;4982466;28;45514;-57
2022/04/29 05:04:09;;;;;;;;;26.75;26.00;;;;;15.27;37.85;102071.94;4982725;28;45236;-57
2022/04/29 05:06:37;;;;;;;;;25.25;20.75;;;;;15.25;37.81;102081.69;4980569;28;45306;-57
2022/04/29 05:09:03;;;;;;;;;20.75;19.50;;;;;15.25;37.66;102084.31;4970866;28;45364;-57
2022/04/29 05:11:29;;;;;;;;;26.25;23.00;;;;;15.23;37.77;102078.19;4981955;28;45592;-57
2022/04/29 05:13:54;;;;;;;;;22.75;21.25;;;;;15.18;37.90;102068.53;4982266;28;45988;-57
2022/04/29 05:16:19;;;;;;;;;19.00;16.00;;;;;15.20;38.12;102077.34;4982325;28;45323;-57
2022/04/29 05:18:45;;;;;;;;;26.25;24.25;;;;;15.19;37.85;102087.03;4982776;28;45373;-57
2022/04/29 05:21:10;;;;;;;;;24.25;22.50;;;;;15.19;38.05;102084.41;4982161;28;45342;-57
2022/04/29 05:23:36;;;;;;;;;22.50;22.00;;;;;15.17;37.96;102086.22;4982469;28;45358;-57
2022/04/29 05:26:02;;;;;;;;;21.00;21.00;;;;;15.17;37.80;102088.84;4981692;28;45172;-57
2022/04/29 05:28:28;;;;;;;;;25.00;20.25;;;;;15.16;38.12;102087.09;4982424;28;45283;-57
2022/04/29 05:30:53;;;;;;;;;22.50;22.50;;;;;15.16;38.28;102081.81;4981232;28;45280;-57
2022/04/29 05:33:19;;;;;;;;;22.50;21.00;;;;;15.17;37.97;102082.66;4981330;28;46067;-57
2022/04/29 05:35:44;;;;;;;;;18.75;17.75;;;;;15.18;38.21;102085.31;4982021;28;45159;-57
2022/04/29 05:38:09;;;;;;;;;24.00;24.00;;;;;15.18;38.70;102084.41;4981871;28;45393;-58
2022/04/29 05:43:19;;;;;;;;;22.50;21.00;;;;;15.20;38.34;102095.88;4981942;28;45231;-64
2022/04/29 05:45:44;;;;;;;;;27.00;20.75;;;;;15.20;38.65;102090.59;4981665;28;45290;-60
2022/04/29 05:48:09;;;;;;;;;22.75;18.50;;;;;15.21;38.27;102092.34;4982028;28;45536;-60
2022/04/29 05:50:35;;;;;;;;;23.25;20.00;;;;;15.22;38.37;102099.38;4981863;28;45361;-61
2022/04/29 05:53:00;;;;;;;;;22.50;20.25;;;;;15.23;38.24;102109.97;4981699;28;45442;-62
2022/04/29 05:55:25;;;;;;;;;20.50;15.75;;;;;15.23;38.24;102114.38;4981586;28;45385;-61
2022/04/29 05:57:51;;;;;;;;;21.00;18.50;;;;;15.25;38.09;102116.09;4981669;28;45391;-61
2022/04/29 06:00:16;;;;;;;;;21.25;21.25;;;;;15.26;38.32;102103.75;4981660;28;45400;-61
2022/04/29 06:02:43;;;;;;;;;26.50;24.50;;;;;15.25;38.26;102100.22;4981522;28;46260;-60
2022/04/29 06:05:09;;;;;;;;;20.50;14.00;;;;;15.28;38.14;102108.13;4981633;28;45496;-60
2022/04/29 06:07:34;;;;;;;;;20.75;20.00;;;;;15.28;38.23;102104.59;4973270;28;45311;-61
2022/04/29 06:10:00;;;;;;;;;22.50;19.00;;;;;15.33;38.64;102112.50;4977537;28;45376;-60
2022/04/29 06:12:26;;;;;;;;;24.50;20.75;;;;;15.35;38.68;102116.00;4981100;28;47100;-60
2022/04/29 06:14:51;;;;;;;;;20.25;19.50;;;;;15.35;38.36;102123.94;4981384;28;45317;-62
2022/04/29 06:17:16;;;;;;;;;22.50;20.25;;;;;15.39;38.71;102126.53;4981632;28;45858;-61
2022/04/29 06:19:42;;;;;;;;;25.50;22.00;;;;;15.42;38.39;102120.31;4981401;28;45150;-56
2022/04/29 06:22:07;;;;;;;;;17.75;16.00;;;;;15.44;38.44;102123.81;4981264;28;45934;-58
2022/04/29 06:24:33;;;;;;;;;18.75;17.75;;;;;15.47;38.67;102125.56;4981012;28;45421;-59
2022/04/29 06:26:59;;;;;;;;;19.75;15.75;;;;;15.49;38.60;102126.44;4981233;28;45262;-58
2022/04/29 06:29:24;;;;;;;;;23.25;18.50;;;;;15.52;38.32;102127.28;4981103;28;45223;-62
2022/04/29 06:31:50;;;;;;;;;22.25;17.50;;;;;15.55;38.16;102137.81;4981061;28;46166;-62
2022/04/29 06:34:15;;;;;;;;;20.00;19.50;;;;;15.57;38.58;102128.09;4979849;28;45255;-57
2022/04/29 06:36:41;;;;;;;;;19.50;13.50;;;;;15.56;38.73;102115.72;4981372;28;45374;-57
2022/04/29 06:39:06;;;;;;;;;15.25;14.50;;;;;15.66;38.48;102121.78;4981018;28;45552;-58
2022/04/29 06:41:32;;;;;;;;;20.50;19.50;;;;;15.67;38.24;102126.19;4979470;28;45449;-54
2022/04/29 06:43:57;;;;;;;;;21.00;20.50;;;;;15.71;38.27;102132.31;4980551;28;45349;-57
2022/04/29 06:46:24;;;;;;;;;21.25;19.50;;;;;15.74;38.52;102134.94;4981383;28;45385;-58
2022/04/29 06:48:50;;;;;;;;;19.75;15.75;;;;;15.78;38.49;102133.97;4979670;28;45643;-62
2022/04/29 06:51:15;;;;;;;;;20.00;19.50;;;;;15.82;38.82;102141.00;4978938;28;45671;-58
2022/04/29 06:53:40;;;;;;;;;22.25;19.50;;;;;15.85;38.27;102143.63;4980467;28;45494;-58
2022/04/29 06:56:06;;;;;;;;;19.75;18.00;;;;;15.88;38.28;102143.59;4979345;28;45359;-58
2022/04/29 06:58:31;;;;;;;;;26.00;20.75;;;;;15.89;38.63;102144.47;4980797;28;45436;-58
2022/04/29 07:00:57;;;;;;;;;25.25;20.25;;;;;15.92;38.44;102147.97;4980900;28;45366;-58
2022/04/29 07:03:22;;;;;;;;;24.50;21.00;;;;;15.98;38.36;102154.06;4979464;28;45164;-58
2022/04/29 07:05:49;;;;;;;;;23.50;21.25;;;;;15.96;38.41;102145.25;4980843;28;45737;-58
2022/04/29 07:08:15;;;;;;;;;21.50;20.75;;;;;16.03;38.31;102149.56;4968165;28;45545;-59
2022/04/29 07:10:41;;;;;;;;;22.00;21.00;;;;;16.03;38.26;102146.94;4978872;28;46060;-58
2022/04/29 07:13:06;;;;;;;;;20.50;19.75;;;;;16.07;38.69;102154.81;4980453;28;45246;-58
2022/04/29 07:15:31;;;;;;;;;22.50;18.50;;;;;16.07;38.57;102145.97;4980677;28;45337;-58
2022/04/29 07:17:57;;;;;;;;;16.25;16.00;;;;;16.13;38.49;102137.94;4980486;28;45455;-58
2022/04/29 07:20:22;;;;;;;;;22.25;16.25;;;;;16.16;38.44;102148.50;4980406;28;45277;-58
2022/04/29 07:22:47;;;;;;;;;21.00;18.50;;;;;16.21;38.47;102143.09;4980338;28;45341;-58
2022/04/29 07:25:14;;;;;;;;;20.50;18.25;;;;;16.23;38.22;102143.97;4980485;28;45445;-58
2022/04/29 07:27:40;;;;;;;;;20.50;18.75;;;;;16.23;38.48;102139.53;4980025;28;45274;-58
2022/04/29 07:30:07;;;;;;;;;22.00;17.50;;;;;16.29;38.21;102132.38;4978866;28;46652;-58
2022/04/29 07:32:33;;;;;;;;;22.00;17.75;;;;;16.28;38.18;102126.22;4979780;28;45239;-58
2022/04/29 07:43:12;;;;;;;;;22.50;21.25;;;;;16.43;38.50;102141.00;4979248;28;45258;-58
2022/04/29 07:45:39;;;;;;;;;22.75;20.25;;;;;16.47;38.42;102140.03;4980242;28;45212;-58
2022/04/29 07:48:06;;;;;;;;;20.25;17.25;;;;;16.49;38.19;102138.25;4979014;28;45376;-58
2022/04/29 07:50:32;;;;;;;;;17.00;15.50;;;;;16.50;38.43;102142.66;4979843;28;46073;-58
2022/04/29 07:52:59;;;;;;;;;18.00;14.25;;;;;16.54;38.27;102144.34;4980181;28;45370;-58
2022/04/29 07:55:24;;;;;;;;;25.50;21.50;;;;;16.55;38.34;102145.22;4981510;28;45620;-58
2022/04/29 07:57:50;;;;;;;;;20.75;18.50;;;;;16.58;38.31;102158.44;4983348;28;45555;-58
2022/04/29 08:00:16;;;;;;;;;19.75;19.50;;;;;16.61;38.29;102158.38;4983421;28;45214;-58
2022/04/29 08:02:41;;;;;;;;;21.25;19.25;;;;;16.62;38.47;102159.28;4983486;28;45219;-58
2022/04/29 08:05:07;;;;;;;;;25.50;21.50;;;;;16.62;38.17;102157.47;4983495;28;45518;-58
2022/04/29 08:07:33;;;;;;;;;16.50;15.75;;;;;16.64;38.21;102166.31;4975657;28;45242;-58
2022/04/29 08:09:59;;;;;;;;;28.50;25.25;;;;;16.65;38.44;102156.56;4979072;28;45261;-58
2022/04/29 08:12:26;;;;;;;;;26.25;23.50;;;;;16.63;38.29;102145.06;4983215;28;45234;-58
2022/04/29 08:14:52;;;;;;;;;24.50;19.75;;;;;16.66;38.02;102148.56;4983304;28;45464;-58
2022/04/29 08:17:19;;;;;;;;;25.50;22.25;;;;;16.68;38.54;102153.88;4983281;28;45263;-58
2022/04/29 08:19:45;;;;;;;;;31.00;24.25;;;;;16.72;38.38;102155.56;4982937;28;46237;-58
2022/04/29 08:22:11;;;;;;;;;24.50;23.00;;;;;16.76;38.31;102159.03;4983079;28;45300;-58
2022/04/29 08:24:37;;;;;;;;;28.25;23.25;;;;;16.81;38.44;102159.81;4983122;28;45267;-58
2022/04/29 08:27:03;;;;;;;;;26.00;23.50;;;;;16.86;38.48;102163.28;4982997;28;45296;-58
2022/04/29 08:29:28;;;;;;;;;27.75;23.50;;;;;16.94;38.60;102166.69;4982996;28;46466;-58
2022/04/29 08:31:54;;;;;;;;;25.75;25.75;;;;;17.00;38.64;102168.34;4982747;28;45441;-58
2022/04/29 08:34:19;;;;;;;;;22.25;20.25;;;;;17.04;38.63;102156.75;4983012;28;45500;-58
2022/04/29 08:36:44;;;;;;;;;29.50;27.25;;;;;17.11;38.63;102162.84;4983124;28;45464;-58
2022/04/29 08:39:10;;;;;;;;;29.00;24.00;;;;;17.17;38.39;102168.06;4982695;28;45389;-58
2022/04/29 08:41:38;;;;;;;;;30.75;26.25;;;;;17.25;38.39;102179.38;4982740;28;45314;-58
2022/04/29 08:44:08;;;;;;;;;25.00;24.50;;;;;17.31;38.47;102175.75;4983104;28;45266;-58
2022/04/29 08:46:34;;;;;;;;;30.75;28.50;;;;;17.32;38.43;102177.47;4982772;28;45244;-58
2022/04/29 08:49:02;;;;;;;;;26.75;24.25;;;;;17.38;38.27;102177.34;4982695;28;45409;-58
2022/04/29 08:51:29;;;;;;;;;31.25;25.75;;;;;17.43;38.40;102177.28;4982756;28;45322;-58
2022/04/29 08:53:54;;;;;;;;;25.75;23.25;;;;;17.47;38.52;102177.19;4982705;28;45520;-58
2022/04/29 08:59:06;;;;;;;;;31.50;24.75;;;;;17.60;38.45;102169.84;4982448;28;45442;-58
2022/04/29 09:01:31;;;;;;;;;29.25;25.50;;;;;17.64;38.37;102163.53;4982580;28;45195;-58
2022/04/29 09:03:56;;;;;;;;;30.00;26.00;;;;;17.75;38.36;102165.09;4982810;28;45517;-58
2022/04/29 09:06:22;;;;;;;;;22.50;19.25;;;;;17.80;38.39;102168.53;4982266;28;45263;-58
2022/04/29 09:08:48;;;;;;;;;38.25;32.00;;;;;17.86;38.23;102163.97;4969979;28;45941;-58
2022/04/29 09:11:22;;;;;;;;;32.00;29.50;;;;;17.96;38.45;102169.09;4982213;28;45298;-58
2022/04/29 09:13:47;;;;;;;;;34.50;29.25;;;;;18.04;38.48;102164.47;4982538;28;45259;-59
2022/04/29 09:16:14;;;;;;;;;33.75;30.25;;;;;18.11;38.35;102168.75;4982393;28;45412;-58
2022/04/29 09:18:41;;;;;;;;;26.50;24.75;;;;;18.18;38.20;102161.50;4982283;28;46372;-58
2022/04/29 09:21:09;;;;;;;;;35.25;31.00;;;;;18.16;38.09;102150.91;4981994;28;45406;-58
2022/04/29 09:23:36;;;;;;;;;31.75;29.25;;;;;18.34;38.28;102170.88;4982340;28;45261;-58
2022/04/29 09:26:05;;;;;;;;;26.75;25.00;;;;;18.42;38.13;102157.38;4981744;28;45436;-58
2022/04/29 09:28:35;;;;;;;;;32.75;30.00;;;;;18.51;38.41;102159.81;4980838;28;45672;-58
2022/04/29 09:31:02;;;;;;;;;36.00;31.50;;;;;18.65;38.37;102155.91;4982116;28;45478;-58
2022/04/29 09:33:29;;;;;;;;;24.75;21.75;;;;;18.78;38.36;102159.13;4981984;28;45174;-58
2022/04/29 09:35:55;;;;;;;;;33.25;28.25;;;;;18.90;38.13;102160.59;4980709;28;45380;-58
2022/04/29 09:41:07;;;;;;;;;31.75;27.75;;;;;19.15;38.04;102159.03;4981625;28;45437;-58
2022/04/29 09:43:44;;;;;;;;;32.75;29.50;;;;;19.28;37.68;102150.69;4981914;28;45598;-58
2022/04/29 09:46:22;;;;;;;;;26.50;24.75;;;;;19.40;37.97;102155.69;4981860;28;45320;-57
2022/04/29 09:48:57;;;;;;;;;25.25;24.75;;;;;19.54;38.18;102155.28;4981800;28;45520;-57
2022/04/29 09:51:41;;;;;;;;;22.00;20.50;;;;;19.71;37.80;102149.47;4980501;28;45300;-57
2022/04/29 09:54:08;;;;;;;;;27.75;24.50;;;;;19.89;37.71;102152.50;4981614;28;45175;-57
2022/04/29 09:56:34;;;;;;;;;29.75;24.50;;;;;20.05;38.05;102151.09;4981527;28;45382;-58
2022/04/29 09:58:59;;;;;;;;;32.00;28.00;;;;;20.23;37.91;102143.44;4981578;28;45311;-58
2022/04/29 10:01:25;;;;;;;;;30.00;29.00;;;;;20.37;37.42;102141.16;4981720;28;45276;-59
2022/04/29 10:03:50;;;;;;;;;27.50;26.00;;;;;20.55;37.80;102136.13;4981760;28;45353;-58
2022/04/29 10:06:20;;;;;;;;;38.25;30.50;;;;;20.72;37.85;102135.59;4981678;28;45432;-56
2022/04/29 10:08:49;;;;;;;;;31.00;28.25;;;;;20.89;37.67;102133.19;4969097;28;45452;-58
2022/04/29 10:11:15;;;;;;;;;26.75;26.25;;;;;21.05;37.47;102128.16;4979953;28;45433;-58
2022/04/29 10:13:41;;;;;;;;;28.00;23.50;;;;;21.24;37.75;102138.19;4981651;28;45326;-58
2022/04/29 10:16:11;;;;;;;;;32.00;27.75;;;;;21.41;37.70;102129.53;4980246;28;45747;-58
2022/04/29 10:21:33;;;;;;;;;32.25;27.50;;;;;21.69;37.45;102132.03;4981234;28;45361;-58
2022/04/29 10:23:59;;;;;;;;;34.50;31.25;;;;;21.81;37.16;102143.19;4981192;28;45274;-58
2022/04/29 10:26:25;;;;;;;;;30.50;27.00;;;;;21.87;37.05;102143.84;4981088;28;45465;-58
2022/04/29 10:28:52;;;;;;;;;23.50;21.50;;;;;21.93;36.65;102142.69;4981186;28;46131;-58
2022/04/29 10:31:20;;;;;;;;;29.00;26.75;;;;;22.01;37.15;102142.38;4981026;28;45437;-58
2022/04/29 10:33:45;;;;;;;;;32.50;26.50;;;;;22.08;36.91;102133.19;4980902;28;45374;-58
2022/04/29 10:36:14;;;;;;;;;31.25;29.00;;;;;22.21;36.93;102138.91;4980923;28;45176;-58
2022/04/29 10:38:42;;;;;;;;;32.50;28.25;;;;;22.36;36.96;102140.97;4979791;28;47138;-58
2022/04/29 10:41:19;;;;;;;;;29.00;27.50;;;;;22.55;36.44;102135.72;4980743;28;45348;-58
2022/04/29 10:44:04;;;;;;;;;26.00;22.00;;;;;22.79;36.73;102132.91;4981149;28;45433;-58
2022/04/29 10:46:37;;;;;;;;;34.25;29.50;;;;;23.03;36.36;102120.22;4979552;28;45537;-60
2022/04/29 10:49:28;;;;;;;;;31.00;28.00;;;;;23.31;36.39;102123.50;4979529;28;45391;-57
2022/04/29 10:52:02;;;;;;;;;27.75;25.50;;;;;23.56;36.42;102123.22;4980710;28;45315;-59
2022/04/29 10:54:33;;;;;;;;;26.00;24.25;;;;;23.82;36.41;102119.28;4981154;28;45345;-58
2022/04/29 10:57:04;;;;;;;;;26.00;25.25;;;;;24.12;36.30;102123.25;4979073;28;45357;-58
2022/04/29 10:59:52;;;;;;;;;27.50;26.50;;;;;24.48;36.46;102128.56;4980822;28;47016;-57
2022/04/29 11:02:31;;;;;;;;;26.75;21.25;;;;;24.83;35.85;102123.22;4979154;28;45410;-58
2022/04/29 11:04:59;;;;;;;;;28.50;26.25;;;;;25.18;35.76;102118.72;4980564;28;45197;-57
2022/04/29 11:07:42;;;;;;;;;21.50;21.50;;;;;25.57;36.13;102122.88;4973653;28;45459;-59
2022/04/29 11:10:10;;;;;;;;;31.00;24.75;;;;;26.07;35.68;102120.97;4977499;28;45387;-59
2022/04/29 11:12:38;;;;;;;;;26.75;24.75;;;;;26.60;35.58;102116.91;4980301;28;45295;-57
2022/04/29 11:15:12;;;;;;;;;23.75;20.50;;;;;27.14;35.60;102118.13;4980540;28;45349;-59
2022/04/29 11:17:39;;;;;;;;;24.50;23.50;;;;;27.55;34.78;102117.34;4980593;28;45355;-56
2022/04/29 11:20:25;;;;;;;;;25.50;22.00;;;;;27.94;34.57;102119.34;4978993;28;46311;-59
2022/04/29 11:25:59;;;;;;;;;23.50;19.00;;;;;28.84;34.68;102106.97;4980064;28;45337;-59
2022/04/29 11:28:29;;;;;;;;;22.25;20.00;;;;;29.37;34.01;102111.38;4980534;28;45487;-59
2022/04/29 11:31:06;;;;;;;;;19.50;19.25;;;;;29.96;34.06;102115.16;4980179;28;45369;-59